createdAt,value
2019-01-09T00:01:28.207Z,7.00
2019-01-09T00:03:59.039Z,7.63
2019-01-09T00:06:29.898Z,4.87
2019-01-09T00:09:00.837Z,7.93
2019-01-09T00:11:30.857Z,4.30
2019-01-09T00:14:00.866Z,4.73
2019-01-09T00:16:31.377Z,5.70
2019-01-09T00:19:01.797Z,4.53
2019-01-09T00:21:32.245Z,8.83
2019-01-09T00:24:02.785Z,6.27
2019-01-09T00:26:34.217Z,4.83
2019-01-09T00:29:04.537Z,8.00
2019-01-09T00:31:34.867Z,4.47
2019-01-09T00:34:04.987Z,5.13
2019-01-09T00:36:35.294Z,6.53
2019-01-09T00:39:06.437Z,6.90
2019-01-09T00:41:36.661Z,6.90
2019-01-09T00:44:06.787Z,5.70
2019-01-09T00:46:37.210Z,6.93
2019-01-09T00:49:07.019Z,5.07
2019-01-09T00:51:37.138Z,8.03
2019-01-09T00:54:07.366Z,7.00
2019-01-09T00:56:37.787Z,6.10
2019-01-09T00:59:08.018Z,7.23
2019-01-09T01:01:38.438Z,6.30
2019-01-09T01:04:20.440Z,4.23
2019-01-09T01:07:09.409Z,6.20
2019-01-09T01:09:58.799Z,4.77
2019-01-09T01:12:49.886Z,4.70
2019-01-09T01:15:36.788Z,7.43
2019-01-09T01:18:25.847Z,4.00
2019-01-09T01:21:05.075Z,5.07
2019-01-09T01:23:54.138Z,7.03
2019-01-09T01:26:28.355Z,5.73
2019-01-09T01:29:17.327Z,5.83
2019-01-09T01:31:59.826Z,4.83
2019-01-09T01:34:48.788Z,5.80
2019-01-09T01:37:38.357Z,6.17
2019-01-09T01:40:27.198Z,5.97
2019-01-09T01:43:17.929Z,6.87
2019-01-09T01:45:52.537Z,5.73
2019-01-09T01:48:42.327Z,5.67
2019-01-09T01:51:21.968Z,4.63
2019-01-09T01:53:56.606Z,3.93
2019-01-09T01:56:45.447Z,6.63
2019-01-09T01:59:21.827Z,6.67
2019-01-09T02:01:59.007Z,5.37
2019-01-09T02:04:47.977Z,2.83
2019-01-09T02:07:36.927Z,3.80
2019-01-09T02:10:26.385Z,2.43
2019-01-09T02:13:15.468Z,4.10
2019-01-09T02:16:04.625Z,3.33
2019-01-09T02:18:38.847Z,3.40
2019-01-09T02:21:19.495Z,3.60
2019-01-09T02:24:10.087Z,7.23
2019-01-09T02:26:59.687Z,5.47
2019-01-09T02:29:50.067Z,6.00
2019-01-09T02:32:26.849Z,6.80
2019-01-09T02:34:57.486Z,5.53
2019-01-09T02:37:28.827Z,5.00
2019-01-09T02:39:59.968Z,5.77
2019-01-09T02:42:31.105Z,4.97
2019-01-09T02:45:02.049Z,5.00
2019-01-09T02:47:32.465Z,6.83
2019-01-09T02:50:03.410Z,6.30
2019-01-09T02:52:34.457Z,5.07
2019-01-09T02:55:05.385Z,5.37
2019-01-09T02:57:35.935Z,6.83
2019-01-09T03:00:09.832Z,6.80
2019-01-09T03:02:40.467Z,6.23
2019-01-09T03:05:11.287Z,5.17
2019-01-09T03:07:42.849Z,5.23
2019-01-09T03:10:12.868Z,5.00
2019-01-09T03:12:43.807Z,5.17
2019-01-09T03:15:14.638Z,5.90
2019-01-09T03:17:45.365Z,5.53
2019-01-09T03:20:15.788Z,5.87
2019-01-09T03:22:46.726Z,6.10
2019-01-09T03:25:16.637Z,6.07
2019-01-09T03:27:46.871Z,4.57
2019-01-09T03:30:17.702Z,6.03
2019-01-09T03:32:47.918Z,5.77
2019-01-09T03:35:18.065Z,4.87
2019-01-09T03:37:48.567Z,7.07
2019-01-09T03:40:18.687Z,5.43
2019-01-09T03:42:49.216Z,5.43
2019-01-09T03:45:19.348Z,4.77
2019-01-09T03:47:49.546Z,7.50
2019-01-09T03:50:19.787Z,5.43
2019-01-09T03:52:49.486Z,6.30
2019-01-09T03:55:19.817Z,5.40
2019-01-09T03:57:49.827Z,4.60
2019-01-09T04:00:19.747Z,4.80
2019-01-09T04:02:49.767Z,5.90
2019-01-09T04:05:19.967Z,6.43
2019-01-09T04:07:50.016Z,4.53
2019-01-09T04:10:20.516Z,5.73
2019-01-09T04:12:50.847Z,6.43
2019-01-09T04:15:20.885Z,5.27
2019-01-09T04:17:51.508Z,5.60
2019-01-09T04:20:22.037Z,4.07
2019-01-09T04:22:53.798Z,4.73
2019-01-09T04:25:24.408Z,4.90
2019-01-09T04:27:54.836Z,6.43
2019-01-09T04:30:25.897Z,6.23
2019-01-09T04:32:56.838Z,6.43
2019-01-09T04:35:27.937Z,14.43
2019-01-09T04:37:58.589Z,8.63
2019-01-09T04:40:29.338Z,8.27
2019-01-09T04:42:59.858Z,6.57
2019-01-09T04:45:30.298Z,6.87
2019-01-09T04:48:00.613Z,7.10
2019-01-09T04:50:31.015Z,8.50
2019-01-09T04:53:01.669Z,8.30
2019-01-09T04:55:31.787Z,5.63
2019-01-09T04:58:02.607Z,9.73
2019-01-09T05:00:33.345Z,8.27
2019-01-09T05:03:05.105Z,7.40
2019-01-09T05:05:36.879Z,7.57
2019-01-09T05:08:08.405Z,8.63
2019-01-09T05:10:39.479Z,6.97
2019-01-09T05:13:10.617Z,10.07
2019-01-09T05:15:41.017Z,6.97
2019-01-09T05:18:12.487Z,14.83
2019-01-09T05:20:43.301Z,6.37
2019-01-09T05:23:14.879Z,8.67
2019-01-09T05:25:46.928Z,9.37
2019-01-09T05:28:18.789Z,8.23
2019-01-09T05:30:50.535Z,8.43
2019-01-09T05:33:21.268Z,9.70
2019-01-09T05:35:51.707Z,9.80
2019-01-09T05:38:22.096Z,9.57
2019-01-09T05:40:52.235Z,10.63
2019-01-09T05:43:22.667Z,8.90
2019-01-09T05:45:53.207Z,14.67
2019-01-09T05:48:24.057Z,11.20
2019-01-09T05:50:54.668Z,14.17
2019-01-09T05:53:25.508Z,10.93
2019-01-09T05:55:55.828Z,19.00
2019-01-09T05:58:27.687Z,8.43
2019-01-09T06:00:58.087Z,14.67
2019-01-09T06:03:28.535Z,14.50
2019-01-09T06:05:59.275Z,41.30
2019-01-09T06:08:29.908Z,15.50
2019-01-09T06:11:00.954Z,22.03
2019-01-09T06:13:31.052Z,18.27
2019-01-09T06:16:00.975Z,17.50
2019-01-09T06:18:30.987Z,22.93
2019-01-09T06:21:01.328Z,34.30
2019-01-09T06:23:41.679Z,19.97
2019-01-09T06:26:12.008Z,16.97
2019-01-09T06:28:42.077Z,20.37
2019-01-09T06:31:12.227Z,10.13
2019-01-09T06:33:42.268Z,8.83
2019-01-09T06:36:12.888Z,9.20
2019-01-09T06:38:42.907Z,9.07
2019-01-09T06:41:12.927Z,13.03
2019-01-09T06:43:43.536Z,12.63
2019-01-09T06:46:13.767Z,17.57
2019-01-09T06:48:44.295Z,16.97
2019-01-09T06:51:14.106Z,20.30
2019-01-09T06:53:44.863Z,25.87
2019-01-09T06:56:14.890Z,30.83
2019-01-09T06:58:45.096Z,30.77
2019-01-09T07:01:15.496Z,26.67
2019-01-09T07:03:47.087Z,24.20
2019-01-09T07:06:18.296Z,22.47
2019-01-09T07:08:49.238Z,32.50
2019-01-09T07:11:19.375Z,22.90
2019-01-09T07:13:49.887Z,25.97
2019-01-09T07:16:20.727Z,20.37
2019-01-09T07:18:51.448Z,21.53
2019-01-09T07:21:21.807Z,23.17
2019-01-09T07:23:52.335Z,20.40
2019-01-09T07:26:23.142Z,17.10
2019-01-09T07:28:54.279Z,11.07
2019-01-09T07:31:24.835Z,13.50
2019-01-09T07:33:59.236Z,17.30
2019-01-09T07:36:30.795Z,15.20
2019-01-09T07:39:03.468Z,18.13
2019-01-09T07:41:37.979Z,14.20
2019-01-09T07:44:08.712Z,16.77
2019-01-09T07:46:39.767Z,16.33
2019-01-09T07:49:09.887Z,14.80
2019-01-09T07:51:41.447Z,20.07
2019-01-09T07:54:12.487Z,24.60
2019-01-09T07:56:43.199Z,22.33
2019-01-09T07:59:14.339Z,16.03
2019-01-09T08:01:45.849Z,17.33
2019-01-09T08:04:17.890Z,14.00
2019-01-09T08:06:48.807Z,13.97
2019-01-09T08:09:19.967Z,14.20
2019-01-09T08:11:51.408Z,13.67
2019-01-09T08:14:22.767Z,14.73
2019-01-09T08:16:53.882Z,19.33
2019-01-09T08:19:24.200Z,16.87
2019-01-09T08:21:54.328Z,20.50
2019-01-09T08:24:24.768Z,14.23
2019-01-09T08:26:55.487Z,15.67
2019-01-09T08:29:25.616Z,15.57
2019-01-09T08:31:56.535Z,14.00
2019-01-09T08:34:27.087Z,18.13
2019-01-09T08:36:57.007Z,18.13
2019-01-09T08:39:28.335Z,13.77
2019-01-09T08:41:58.567Z,11.30
2019-01-09T08:44:29.528Z,15.40
2019-01-09T08:46:59.838Z,16.83
2019-01-09T08:49:29.847Z,14.30
2019-01-09T08:51:59.961Z,13.43
2019-01-09T08:54:29.979Z,15.77
2019-01-09T08:56:59.927Z,12.40
2019-01-09T08:59:30.225Z,12.10
2019-01-09T09:02:00.127Z,15.57
2019-01-09T09:04:30.087Z,14.57
2019-01-09T09:07:00.487Z,17.10
2019-01-09T09:09:31.935Z,19.17
2019-01-09T09:12:02.258Z,15.83
2019-01-09T09:14:32.377Z,15.60
2019-01-09T09:17:02.575Z,17.77
2019-01-09T09:19:32.919Z,16.67
2019-01-09T09:22:02.927Z,18.23
2019-01-09T09:24:33.335Z,19.03
2019-01-09T09:27:03.574Z,18.33
2019-01-09T09:29:33.696Z,20.20
2019-01-09T09:32:03.807Z,25.20
2019-01-09T09:34:34.247Z,25.00
2019-01-09T09:37:04.455Z,21.83
2019-01-09T09:39:34.455Z,19.40
2019-01-09T09:42:04.687Z,18.20
2019-01-09T09:44:35.093Z,15.33
2019-01-09T09:47:04.927Z,15.53
2019-01-09T09:49:35.048Z,18.73
2019-01-09T09:52:05.287Z,17.87
2019-01-09T09:54:35.679Z,16.17
2019-01-09T09:57:06.327Z,15.83
2019-01-09T09:59:36.447Z,20.00
2019-01-09T10:02:06.656Z,21.97
2019-01-09T10:04:36.574Z,23.43
2019-01-09T10:07:06.727Z,24.40
2019-01-09T10:09:37.247Z,29.67
2019-01-09T10:12:07.447Z,22.00
2019-01-09T10:14:37.767Z,22.63
2019-01-09T10:17:07.778Z,21.67
2019-01-09T10:19:37.800Z,20.13
2019-01-09T10:22:08.078Z,19.27
2019-01-09T10:24:38.447Z,22.57
2019-01-09T10:27:08.567Z,22.90
2019-01-09T10:29:39.327Z,23.97
2019-01-09T10:32:09.647Z,24.97
2019-01-09T10:34:39.647Z,24.43
2019-01-09T10:37:11.607Z,22.80
2019-01-09T10:39:44.895Z,21.93
2019-01-09T10:42:15.088Z,20.77
2019-01-09T10:44:47.608Z,20.20
2019-01-09T10:47:21.007Z,17.30
2019-01-09T10:49:51.929Z,20.60
2019-01-09T10:52:22.890Z,22.17
2019-01-09T10:54:54.850Z,23.17
2019-01-09T10:57:25.247Z,24.27
2019-01-09T10:59:55.607Z,16.97
2019-01-09T11:02:25.929Z,16.50
2019-01-09T11:04:56.415Z,17.53
2019-01-09T11:07:26.847Z,23.00
2019-01-09T11:09:57.086Z,20.00
2019-01-09T11:12:27.606Z,26.67
2019-01-09T11:14:57.814Z,21.83
2019-01-09T11:17:28.247Z,28.97
2019-01-09T11:19:58.095Z,28.53
2019-01-09T11:22:28.728Z,24.10
2019-01-09T11:25:01.368Z,20.87
2019-01-09T11:27:30.887Z,27.67
2019-01-09T11:30:01.198Z,33.47
2019-01-09T11:32:31.447Z,28.90
2019-01-09T11:35:01.648Z,28.83
2019-01-09T11:37:31.758Z,37.37
2019-01-09T11:40:02.287Z,29.03
2019-01-09T11:42:32.409Z,40.50
2019-01-09T11:45:02.455Z,32.20
2019-01-09T11:47:32.770Z,44.47
2019-01-09T11:50:03.087Z,36.20
2019-01-09T11:52:35.739Z,41.47
2019-01-09T11:55:06.287Z,38.10
2019-01-09T11:57:36.808Z,24.17
2019-01-09T12:00:09.207Z,24.83
2019-01-09T12:02:39.807Z,27.07
2019-01-09T12:05:10.047Z,27.60
2019-01-09T12:07:40.373Z,21.37
2019-01-09T12:10:11.407Z,20.00
2019-01-09T12:12:42.087Z,16.90
2019-01-09T12:15:14.095Z,17.93
2019-01-09T12:17:44.087Z,17.63
2019-01-09T12:20:14.895Z,15.70
2019-01-09T12:22:45.489Z,16.63
2019-01-09T12:25:15.607Z,15.17
2019-01-09T12:27:45.728Z,18.90
2019-01-09T12:30:23.408Z,13.73
2019-01-09T12:32:53.327Z,13.20
2019-01-09T12:35:23.456Z,9.73
2019-01-09T12:37:53.567Z,12.13
2019-01-09T12:40:23.775Z,10.33
2019-01-09T12:42:54.010Z,12.10
2019-01-09T12:45:24.414Z,16.43
2019-01-09T12:47:54.535Z,18.03
2019-01-09T12:50:25.478Z,16.40
2019-01-09T12:52:56.327Z,17.87
2019-01-09T12:55:26.447Z,16.00
2019-01-09T12:57:56.655Z,13.73
2019-01-09T13:00:28.848Z,15.17
2019-01-09T13:03:02.088Z,21.83
2019-01-09T13:05:32.647Z,15.03
2019-01-09T13:08:02.887Z,15.27
2019-01-09T13:10:34.088Z,17.80
2019-01-09T13:13:05.767Z,18.03
2019-01-09T13:15:36.415Z,19.97
2019-01-09T13:18:06.816Z,23.70
2019-01-09T13:20:37.459Z,19.20
2019-01-09T13:23:08.295Z,18.57
2019-01-09T13:25:39.087Z,15.83
2019-01-09T13:28:09.871Z,15.67
2019-01-09T13:30:40.488Z,20.40
2019-01-09T13:33:11.423Z,20.60
2019-01-09T13:35:48.720Z,22.00
2019-01-09T13:38:19.971Z,75.67
2019-01-09T13:40:51.088Z,34.30
2019-01-09T13:43:22.570Z,23.87
2019-01-09T13:45:54.847Z,25.20
2019-01-09T13:48:25.855Z,24.60
2019-01-09T13:50:58.458Z,23.23
2019-01-09T13:53:29.279Z,23.07
2019-01-09T13:56:00.935Z,22.53
2019-01-09T13:58:34.112Z,27.90
2019-01-09T14:01:15.393Z,25.40
2019-01-09T14:03:48.313Z,16.97
2019-01-09T14:06:19.111Z,15.80
2019-01-09T14:08:53.858Z,20.47
2019-01-09T14:11:28.769Z,13.10
2019-01-09T14:14:00.007Z,16.00
2019-01-09T14:16:30.775Z,18.20
2019-01-09T14:19:03.847Z,18.20
2019-01-09T14:21:33.856Z,24.67
2019-01-09T14:24:04.927Z,20.03
2019-01-09T14:26:36.095Z,24.63
2019-01-09T14:29:13.969Z,22.23
2019-01-09T14:31:46.210Z,18.13
2019-01-09T14:34:17.758Z,23.83
2019-01-09T14:36:55.872Z,22.20
2019-01-09T14:39:31.009Z,24.20
2019-01-09T14:42:02.759Z,25.63
2019-01-09T14:44:35.231Z,26.57
2019-01-09T14:47:08.735Z,24.50
2019-01-09T14:50:25.959Z,25.20
2019-01-09T14:53:35.926Z,28.53
2019-01-09T14:56:50.184Z,27.47
2019-01-09T14:59:21.600Z,26.13
2019-01-09T15:01:53.776Z,27.37
2019-01-09T15:04:24.016Z,33.57
2019-01-09T15:06:54.247Z,85.20
2019-01-09T15:09:25.168Z,162.87
2019-01-09T15:11:56.839Z,79.87
2019-01-09T15:14:27.247Z,35.63
2019-01-09T15:16:57.767Z,37.60
2019-01-09T15:19:27.807Z,51.73
2019-01-09T15:21:59.416Z,41.23
2019-01-09T15:24:29.623Z,44.30
2019-01-09T15:27:00.207Z,54.13
2019-01-09T15:29:30.927Z,98.50
2019-01-09T15:32:01.358Z,90.20
2019-01-09T15:34:32.608Z,71.60
2019-01-09T15:37:05.089Z,114.70
2019-01-09T15:39:35.807Z,77.73
2019-01-09T15:42:06.647Z,82.77
2019-01-09T15:44:37.079Z,58.93
2019-01-09T15:47:07.280Z,81.77
2019-01-09T15:49:38.078Z,87.67
2019-01-09T15:52:08.895Z,150.67
2019-01-09T15:54:39.207Z,155.20
2019-01-09T15:57:09.407Z,142.27
2019-01-09T15:59:39.847Z,109.77
2019-01-09T16:02:09.967Z,103.90
2019-01-09T16:04:40.807Z,86.83
2019-01-09T16:07:11.400Z,185.03
2019-01-09T16:09:41.448Z,188.93
2019-01-09T16:12:12.810Z,140.20
2019-01-09T16:14:43.073Z,153.27
2019-01-09T16:17:14.343Z,184.00
2019-01-09T16:19:45.383Z,153.50
2019-01-09T16:22:16.080Z,121.40
2019-01-09T16:24:47.480Z,153.40
2019-01-09T16:27:17.687Z,202.37
2019-01-09T16:29:47.614Z,114.27
2019-01-09T16:32:17.542Z,123.07
2019-01-09T16:34:47.659Z,143.03
2019-01-09T16:37:17.959Z,140.00
2019-01-09T16:39:47.977Z,183.63
2019-01-09T16:42:18.207Z,145.47
2019-01-09T16:44:48.848Z,186.90
2019-01-09T16:47:19.456Z,169.57
2019-01-09T16:49:49.927Z,151.73
2019-01-09T16:52:20.935Z,115.70
2019-01-09T16:54:51.658Z,167.83
2019-01-09T16:57:21.915Z,123.37
2019-01-09T16:59:52.327Z,113.00
2019-01-09T17:02:23.087Z,131.43
2019-01-09T17:04:53.887Z,179.20
2019-01-09T17:07:24.416Z,143.43
2019-01-09T17:09:54.849Z,115.83
2019-01-09T17:12:25.878Z,146.10
2019-01-09T17:14:56.821Z,165.90
2019-01-09T17:17:28.759Z,293.87
2019-01-09T17:20:01.768Z,174.57
2019-01-09T17:22:34.639Z,175.40
2019-01-09T17:25:06.191Z,170.77
2019-01-09T17:27:37.447Z,157.03
2019-01-09T17:30:09.912Z,169.10
2019-01-09T17:32:40.740Z,172.80
2019-01-09T17:35:11.495Z,158.53
2019-01-09T17:37:42.734Z,145.60
2019-01-09T17:40:13.779Z,176.60
2019-01-09T17:42:44.204Z,209.47
2019-01-09T17:45:14.421Z,329.97
2019-01-09T17:47:45.687Z,217.50
2019-01-09T17:50:18.819Z,252.97
2019-01-09T17:52:49.280Z,199.63
2019-01-09T17:55:19.087Z,184.67
2019-01-09T17:57:49.849Z,193.97
2019-01-09T18:00:21.089Z,107.07
2019-01-09T18:02:51.407Z,152.07
2019-01-09T18:05:23.687Z,157.73
2019-01-09T18:07:54.808Z,91.70
2019-01-09T18:10:25.464Z,155.23
2019-01-09T18:12:56.278Z,148.47
2019-01-09T18:15:27.217Z,121.77
2019-01-09T18:17:57.737Z,124.57
2019-01-09T18:20:27.639Z,224.07
2019-01-09T18:22:58.487Z,109.00
2019-01-09T18:25:29.431Z,136.63
2019-01-09T18:28:10.399Z,135.10
2019-01-09T18:30:44.727Z,179.70
2019-01-09T18:33:18.008Z,133.73
2019-01-09T18:35:51.419Z,156.13
2019-01-09T18:38:40.377Z,109.77
2019-01-09T18:41:33.431Z,100.40
2019-01-09T18:44:23.208Z,84.07
2019-01-09T18:47:12.577Z,116.40
2019-01-09T18:49:47.421Z,66.33
2019-01-09T18:52:24.167Z,92.60
2019-01-09T18:54:54.807Z,85.13
2019-01-09T18:57:24.928Z,128.00
2019-01-09T18:59:55.659Z,69.70
2019-01-09T19:02:25.808Z,116.40
2019-01-09T19:04:56.219Z,152.93
2019-01-09T19:07:29.080Z,115.83
2019-01-09T19:10:02.088Z,87.60
2019-01-09T19:12:34.040Z,135.90
2019-01-09T19:15:07.649Z,106.07
2019-01-09T19:17:41.539Z,130.37
2019-01-09T19:20:15.081Z,152.83
2019-01-09T19:22:48.339Z,124.43
2019-01-09T19:25:24.599Z,129.23
2019-01-09T19:27:56.071Z,103.07
2019-01-09T19:30:33.540Z,130.83
2019-01-09T19:33:10.134Z,115.13
2019-01-09T19:35:44.693Z,78.27
2019-01-09T19:38:17.320Z,92.30
2019-01-09T19:41:00.210Z,83.80
2019-01-09T19:43:35.392Z,101.27
2019-01-09T19:46:08.769Z,120.37
2019-01-09T19:48:44.528Z,74.27
2019-01-09T19:51:20.081Z,104.80
2019-01-09T19:53:50.600Z,79.00
2019-01-09T19:56:20.600Z,135.20
2019-01-09T19:58:50.928Z,118.07
2019-01-09T20:01:21.041Z,90.03
2019-01-09T20:03:51.288Z,86.53
2019-01-09T20:06:21.719Z,69.13
2019-01-09T20:08:52.075Z,78.03
2019-01-09T20:11:26.504Z,78.57
2019-01-09T20:13:54.958Z,58.27
2019-01-09T20:16:26.471Z,57.17
2019-01-09T20:18:57.404Z,50.53
2019-01-09T20:21:30.527Z,45.37
2019-01-09T20:24:01.319Z,49.00
2019-01-09T20:26:33.072Z,46.57
2019-01-09T20:29:03.528Z,49.03
2019-01-09T20:31:34.552Z,53.50
2019-01-09T20:34:05.809Z,58.23
2019-01-09T20:36:37.882Z,50.40
2019-01-09T20:39:10.484Z,54.90
2019-01-09T20:41:40.892Z,58.27
2019-01-09T20:44:11.061Z,58.40
2019-01-09T20:46:41.942Z,50.67
2019-01-09T20:49:12.872Z,40.30
2019-01-09T20:51:43.217Z,50.77
2019-01-09T20:54:13.308Z,51.47
2019-01-09T20:56:43.333Z,49.67
2019-01-09T20:59:13.979Z,46.43
2019-01-09T21:01:44.080Z,42.73
2019-01-09T21:04:14.213Z,42.40
2019-01-09T21:06:44.852Z,48.10
2019-01-09T21:09:15.485Z,47.03
2019-01-09T21:11:45.799Z,61.43
2019-01-09T21:14:15.983Z,65.30
2019-01-09T21:16:46.208Z,56.27
2019-01-09T21:19:16.535Z,57.47
2019-01-09T21:21:47.287Z,65.23
2019-01-09T21:24:18.247Z,65.23
2019-01-09T21:26:48.848Z,79.73
2019-01-09T21:29:19.508Z,84.13
2019-01-09T21:31:49.807Z,112.87
2019-01-09T21:34:19.927Z,97.97
2019-01-09T21:36:50.767Z,110.70
2019-01-09T21:39:21.808Z,129.83
2019-01-09T21:41:53.458Z,115.03
2019-01-09T21:44:27.111Z,115.53
2019-01-09T21:46:57.575Z,127.90
2019-01-09T21:49:27.807Z,124.37
2019-01-09T21:51:58.088Z,136.30
2019-01-09T21:54:28.369Z,125.67
2019-01-09T21:56:59.175Z,121.97
2019-01-09T21:59:29.207Z,123.33
2019-01-09T22:01:59.328Z,161.43
2019-01-09T22:04:29.447Z,114.70
2019-01-09T22:06:59.467Z,124.97
2019-01-09T22:09:29.815Z,140.67
2019-01-09T22:12:02.599Z,114.27
2019-01-09T22:14:31.769Z,130.37
2019-01-09T22:17:02.288Z,143.63
2019-01-09T22:19:32.237Z,138.67
2019-01-09T22:22:02.327Z,137.13
2019-01-09T22:24:32.747Z,166.13
2019-01-09T22:27:02.435Z,165.20
2019-01-09T22:29:32.557Z,131.67
2019-01-09T22:32:02.776Z,123.37
2019-01-09T22:34:33.103Z,127.37
2019-01-09T22:37:02.936Z,131.83
2019-01-09T22:39:32.837Z,190.90
2019-01-09T22:42:11.529Z,122.23
2019-01-09T22:44:34.299Z,152.53
2019-01-09T22:47:04.004Z,155.97
2019-01-09T22:49:34.436Z,156.77
2019-01-09T22:52:05.676Z,126.37
2019-01-09T22:54:36.545Z,137.10
2019-01-09T22:57:07.654Z,158.50
2019-01-09T22:59:37.674Z,162.73
2019-01-09T23:02:08.410Z,156.07
2019-01-09T23:04:38.734Z,208.80
2019-01-09T23:07:08.639Z,163.63
2019-01-09T23:09:38.661Z,146.87
2019-01-09T23:12:08.987Z,155.33
2019-01-09T23:14:39.014Z,146.03
2019-01-09T23:17:09.233Z,137.60
2019-01-09T23:19:39.452Z,137.10
2019-01-09T23:22:09.356Z,130.47
2019-01-09T23:24:39.791Z,154.60
2019-01-09T23:27:10.219Z,197.07
2019-01-09T23:29:40.963Z,141.10
2019-01-09T23:32:10.756Z,159.80
2019-01-09T23:34:42.092Z,138.43
2019-01-09T23:37:12.320Z,118.00
2019-01-09T23:39:43.396Z,118.13
2019-01-09T23:42:14.016Z,109.43
2019-01-09T23:44:45.755Z,99.03
2019-01-09T23:47:15.660Z,99.57
2019-01-09T23:49:45.881Z,105.93
2019-01-09T23:52:15.804Z,118.67
2019-01-09T23:54:45.936Z,124.20
2019-01-09T23:57:15.846Z,116.50
2019-01-09T23:59:45.762Z,107.40
